This is the latest recevied weather packets stored in our database for station/object WABB. If no packets are shown the sender has not sent any weather packets the latest 10 day(s).
| Time | Temp. | Humidity | Pressure | Rain* | Wind** | Luminosity | Snow |
|---|---|---|---|---|---|---|---|
| 1788149096 | 31.11° C | 75% | 1 hPa | 0 mm | - | - | - |
| 1788147035 | 31.11° C | 70% | 1 hPa | 0 mm | - | - | - |
| 1788142928 | 30° C | 75% | 1 hPa | 0 mm | - | - | - |
| 1788140928 | 30° C | 75% | 1 hPa | 0 mm | - | - | - |
| 1788138888 | 30° C | 75% | 1 hPa | 0 mm | - | - | - |
| 1788136895 | 30° C | 75% | 1 hPa | 0 mm | - | - | - |
| 1788134924 | 28.89° C | 79% | 1 hPa | 0 mm | - | - | - |
| 1788132785 | 28.89° C | 74% | 1 hPa | 0 mm | - | - | - |
| 1788130708 | 27.22° C | 89% | 1 hPa | 0 mm | - | - | - |
| 1788128746 | 23.89° C | 99% | 1 hPa | 0 mm | - | - | - |
| 1788126400 | 23.89° C | 94% | 1 hPa | 0 mm | - | - | - |
| 1788124085 | 23.89° C | 94% | 1 hPa | 0 mm | - | - | - |
| 1788121875 | 23.89° C | 94% | 1 hPa | 0 mm | - | - | - |
| 1788119940 | 23.89° C | 94% | 1 hPa | 0 mm | - | - | - |
| 1788118006 | 23.89° C | 94% | 1 hPa | 0 mm | - | - | - |
| 1788116068 | 26.11° C | 89% | 1 hPa | 0 mm | - | - | - |
| 1788114129 | 26.11° C | 89% | 1 hPa | 0 mm | - | - | - |
| 1788112172 | 26.11° C | 89% | 1 hPa | 0 mm | - | - | - |
| 1788110224 | 26.11° C | 84% | 1 hPa | 0 mm | - | - | - |
| 1788108289 | 27.22° C | 79% | 1 hPa | 0 mm | - | - | - |
| 1788106355 | 27.22° C | 84% | 1 hPa | 0 mm | - | - | - |
| 1788104285 | 27.22° C | 84% | 1 hPa | 0 mm | - | - | - |
| 1788102327 | 27.22° C | 84% | 1 hPa | 0 mm | - | - | - |
| 1788100350 | 27.78° C | 79% | 1 hPa | 0 mm | - | - | - |
| 1788098369 | 27.78° C | 74% | 1 hPa | 0 mm | - | - | - |
* Rain latest hour (hover to see other rain measurements)
** Current wind speed in m/s (hover to see current wind gust speed)